Latest Coastal Weather Observations for Karratha

IDW60701

Issued at 6:25 pm WST Saturday 25 October 2014 (issued every 10 minutes, with the page automatically refreshed every 10 minutes)

About coastal observations | Map of coastal stations | Coastal observations for WA | Marine services | Other Formats
Station Details ID: 004083 Name: KARRATHA AERO Lat: -20.71 Lon: 116.77 Height: 5.3 m
Data from the previous 72 hours. | See also: Recent months at Karratha
Date/Time
WST
Temp

°C
Wind Pressure Rain
since 9am
mm
Weather Cloud Vis
km
Sea
Height
m
Swell
Dir
 
Speed
knots
Gust
knots
hPa Trend Height
m
Period
s
Dir
25/06:00pm 29.4 W 21 25 1011.2 - 0.0 - - 10 - - - -
25/05:30pm 30.5 W 21 26 1011.0 - 0.0 - - 10 - - - -
25/05:00pm 30.2 W 22 26 1010.7 - 0.0 - - 10 - - - -
25/04:30pm 30.9 W 24 29 1010.6 - 0.0 - - 10 - - - -
25/04:00pm 31.4 W 22 26 1010.6 - 0.0 - - 10 - - - -
25/03:30pm 31.2 W 24 28 1010.7 - 0.0 - - 10 - - - -
25/03:00pm 32.1 W 25 30 1010.7 - 0.0 - - 10 - - - -
25/02:30pm 32.3 W 24 29 1011.0 - 0.0 - - 10 - - - -
25/02:00pm 32.9 W 23 28 1011.3 - 0.0 - - 10 - - - -
25/01:30pm 32.4 W 22 26 1011.6 - 0.0 - - 10 - - - -
25/01:00pm 32.2 W 21 25 1012.1 - 0.0 - - 10 - - - -
25/12:30pm 32.3 W 20 25 1012.4 - 0.0 - - 10 - - - -
25/12:00pm 33.4 W 19 25 1012.9 - 0.0 - - 10 - - - -
25/11:30am 35.0 W 15 20 1013.0 - 0.0 - - 10 - - - -
25/11:00am 35.9 W 11 16 1013.4 - 0.0 - - 10 - - - -
25/10:30am 35.0 W 11 14 1013.7 - 0.0 - - 10 - - - -
25/10:00am 35.0 W 9 11 1013.9 - 0.0 - - 10 - - - -
25/09:30am 32.9 W 10 12 1014.1 - 0.0 - - 10 - - - -
25/09:00am 31.3 W 9 11 1014.2 - 0.0 - - 10 - - - -
25/08:30am 29.3 W 10 11 1014.2 - 0.0 - - 10 - - - -
25/08:00am 27.4 W 11 13 1014.1 - 0.0 - - 10 - - - -
25/07:30am 26.1 W 9 11 1013.9 - 0.0 - - 10 - - - -
25/07:00am 25.0 WSW 10 13 1013.6 - 0.0 - - 10 - - - -
25/06:30am 24.2 WSW 9 11 1013.3 - 0.0 - - 10 - - - -
25/06:00am 23.1 WSW 10 11 1012.9 - 0.0 - - 10 - - - -
25/05:30am 22.3 WSW 7 9 1012.7 - 0.0 - - 10 - - - -
25/05:00am 23.5 WSW 8 9 1012.4 - 0.0 - - 10 - - - -
25/04:30am 24.0 WSW 10 11 1012.2 - 0.0 - - 10 - - - -
25/04:00am 23.5 WSW 9 10 1011.9 - 0.0 - - 10 - - - -
25/03:30am 24.1 WSW 9 11 1011.7 - 0.0 - - 10 - - - -
25/03:00am 24.9 WSW 9 11 1011.5 - 0.0 - - 10 - - - -
25/02:30am 25.2 WSW 9 10 1011.4 - 0.0 - - 10 - - - -
25/02:00am 25.6 WSW 10 12 1011.3 - 0.0 - - 10 - - - -
25/01:30am 25.6 W 11 13 1011.2 - 0.0 - - 10 - - - -
25/01:00am 25.7 WSW 10 12 1011.4 - 0.0 - - 10 - - - -
25/12:30am 26.0 W 10 12 1011.7 - 0.0 - - 10 - - - -
25/12:00am 26.1 W 12 14 1011.7 - 0.0 - - 10 - - - -
 
Date/Time
WST
Temp

°C
Wind Pressure Rain
since 9am
mm
Weather Cloud Vis
km
Sea
Height
m
Swell
Dir
 
Speed
knots
Gust
knots
hPa Trend Height
m
Period
s
Dir
24/11:30pm 26.1 W 11 13 1011.9 - 0.0 - - 10 - - - -
24/11:00pm 26.2 W 12 14 1012.0 - 0.0 - - 10 - - - -
24/10:30pm 26.4 W 13 15 1012.0 - 0.0 - - 10 - - - -
24/10:00pm 26.6 W 15 17 1011.8 - 0.0 - - 10 - - - -
24/09:30pm 27.0 W 14 18 1011.6 - 0.0 - - 10 - - - -
24/09:00pm 27.4 W 14 17 1011.4 - 0.0 - - 10 - - - -
24/08:30pm 27.8 W 14 17 1011.0 - 0.0 - - 10 - - - -
24/08:00pm 28.0 W 14 17 1010.6 - 0.0 - - 10 - - - -
24/07:30pm 27.8 W 16 19 1010.2 - 0.0 - - 10 - - - -
24/07:00pm 28.0 W 18 21 1009.8 - 0.0 - - 10 - - - -
24/06:30pm 28.5 W 19 22 1009.3 - 0.0 - - 10 - - - -
24/06:00pm 29.4 W 17 21 1009.0 - 0.0 - - 10 - - - -
24/05:30pm 30.1 W 21 24 1008.6 - 0.0 - - 10 - - - -
24/05:00pm 31.5 W 19 24 1008.2 - 0.0 - - 10 - - - -
24/04:30pm 32.0 W 21 28 1008.1 - 0.0 - - 10 - - - -
24/04:00pm 32.5 W 19 23 1008.0 - 0.0 - - 10 - - - -
24/03:30pm 33.3 W 20 25 1008.2 - 0.0 - - 10 - - - -
24/03:00pm 33.8 W 21 25 1008.3 - 0.0 - - 10 - - - -
24/02:30pm 34.1 W 20 26 1008.6 - 0.0 - - 10 - - - -
24/02:00pm 34.0 W 21 25 1009.1 - 0.0 - - 10 - - - -
24/01:30pm 34.1 W 17 22 1009.4 - 0.0 - - 10 - - - -
24/01:00pm 34.1 W 16 19 1009.9 - 0.0 - - 10 - - - -
24/12:30pm 34.1 W 15 18 1010.2 - 0.0 - - 10 - - - -
24/12:00pm 34.0 W 15 19 1010.3 - 0.0 - - 10 - - - -
24/11:30am 33.6 WNW 13 15 1010.7 - 0.0 - - 10 - - - -
24/11:00am 35.5 NW 8 10 1010.9 - 0.0 - - 10 - - - -
24/10:30am 35.0 WNW 9 11 1011.2 - 0.0 - - 10 - - - -
24/10:00am 34.2 W 10 13 1011.4 - 0.0 - - 10 - - - -
24/09:30am 31.8 W 10 11 1011.7 - 0.0 - - 10 - - - -
24/09:00am 30.2 W 11 13 1011.7 - 0.0 - - 10 - - - -
24/08:30am 28.7 W 11 13 1011.8 - 0.0 - - 10 - - - -
24/08:00am 26.7 W 11 14 1011.7 - 0.0 - - 10 - - - -
24/07:30am 26.0 WSW 12 14 1011.5 - 0.0 - - 10 - - - -
24/07:00am 25.1 W 11 12 1011.3 - 0.0 - - 10 - - - -
24/06:30am 24.0 WSW 9 11 1011.2 - 0.0 - - 10 - - - -
24/06:00am 23.0 WSW 9 10 1011.2 - 0.0 - - 10 - - - -
24/05:30am 22.9 WSW 9 10 1011.0 - 0.0 - - 10 - - - -
24/05:00am 22.9 WSW 9 11 1010.6 - 0.0 - - 10 - - - -
24/04:30am 22.9 WSW 8 9 1010.6 - 0.0 - - 10 - - - -
24/04:00am 23.5 W 9 11 1010.5 - 0.0 - - 10 - - - -
24/03:30am 23.8 W 9 10 1010.4 - 0.0 - - 10 - - - -
24/03:00am 23.5 W 7 8 1010.4 - 0.0 - - 10 - - - -
24/02:30am 23.9 WSW 7 9 1010.4 - 0.0 - - 10 - - - -
24/02:00am 24.3 W 9 11 1010.1 - 0.0 - - 10 - - - -
24/01:30am 23.9 WSW 8 11 1010.4 - 0.0 - - 10 - - - -
24/01:00am 24.6 SW 9 11 1010.8 - 0.0 - - 10 - - - -
24/12:30am 25.2 WSW 14 17 1010.6 - 0.0 - - 10 - - - -
24/12:00am 25.3 WSW 15 19 1010.8 - 0.0 - - 10 - - - -
 
Date/Time
WST
Temp

°C
Wind Pressure Rain
since 9am
mm
Weather Cloud Vis
km
Sea
Height
m
Swell
Dir
 
Speed
knots
Gust
knots
hPa Trend Height
m
Period
s
Dir
23/11:30pm 25.6 WSW 15 18 1011.2 - 0.0 - - 10 - - - -
23/11:00pm 25.7 WSW 15 18 1011.4 - 0.0 - - 10 - - - -
23/10:30pm 25.9 W 15 18 1011.6 - 0.0 - - 10 - - - -
23/10:00pm 26.1 W 15 18 1011.7 - 0.0 - - 10 - - - -
23/09:30pm 26.4 WSW 16 19 1011.7 - 0.0 - - 10 - - - -
23/09:00pm 26.7 W 16 20 1011.4 - 0.0 - - 10 - - - -
23/08:30pm 27.0 WSW 16 19 1011.2 - 0.0 - - 10 - - - -
23/08:00pm 27.2 W 17 21 1010.9 - 0.0 - - 10 - - - -
23/07:30pm 27.4 W 17 22 1010.7 - 0.0 - - 10 - - - -
23/07:00pm 27.5 W 18 23 1010.4 - 0.0 - - 10 - - - -
23/06:30pm 27.6 W 19 23 1010.0 - 0.0 - - 10 - - - -
23/06:00pm 27.8 W 20 24 1009.7 - 0.0 - - 10 - - - -
23/05:30pm 28.8 W 23 28 1009.4 - 0.0 - - 10 - - - -
23/05:00pm 29.7 W 20 24 1009.1 - 0.0 - - 10 - - - -
23/04:30pm 30.4 W 21 25 1009.1 - 0.0 - - 10 - - - -
23/04:00pm 30.7 W 22 25 1009.2 - 0.0 - - 10 - - - -
23/03:30pm 31.3 W 21 26 1009.3 - 0.0 - - 10 - - - -
23/03:00pm 32.3 W 18 23 1009.3 - 0.0 - - 10 - - - -
23/02:30pm 33.3 W 18 22 1009.6 - 0.0 - - 10 - - - -
23/02:00pm 33.8 W 17 21 1009.9 - 0.0 - - 10 - - - -
23/01:30pm 35.1 W 15 19 1010.1 - 0.0 - - 10 - - - -
23/01:00pm 34.6 W 15 20 1010.5 - 0.0 - - 10 - - - -
23/12:30pm 35.5 W 15 18 1010.9 - 0.0 - - 10 - - - -
23/12:00pm 35.5 W 14 17 1011.3 - 0.0 - - 10 - - - -
23/11:30am 36.0 WNW 13 15 1011.6 - 0.0 - - 10 - - - -
23/11:00am 37.5 SW 9 13 1012.1 - 0.0 - - 10 - - - -
23/10:30am 37.2 S 9 17 1012.2 - 0.0 - - 10 - - - -
23/10:00am 36.9 S 10 16 1012.5 - 0.0 - - 10 - - - -
23/09:30am 35.3 S 9 14 1012.5 - 0.0 - - 10 - - - -
23/09:00am 34.4 S 12 16 1012.5 - 0.0 - - 10 - - - -
23/08:30am 33.4 S 9 12 1012.5 - 0.0 - - 10 - - - -
23/08:00am 30.2 W 8 9 1012.4 - 0.0 - - 10 - - - -
23/07:30am 28.0 WSW 7 9 1012.3 - 0.0 - - 10 - - - -
23/07:00am 26.7 WSW 8 11 1012.0 - 0.0 - - 10 - - - -
23/06:30am 25.9 WSW 10 13 1011.9 - 0.0 - - 10 - - - -
23/06:00am 25.1 WSW 11 12 1011.4 - 0.0 - - 10 - - - -
23/05:30am 25.2 WSW 10 12 1011.2 - 0.0 - - 10 - - - -
23/05:00am 25.5 WSW 10 11 1011.1 - 0.0 - - 10 - - - -
23/04:30am 26.0 WSW 8 10 1011.0 - 0.0 - - 10 - - - -
23/04:00am 26.2 SW 9 11 1010.8 - 0.0 - - 10 - - - -
23/03:30am 25.6 SW 10 11 1010.8 - 0.0 - - 10 - - - -
23/03:00am 25.7 SW 7 8 1010.9 - 0.0 - - 10 - - - -
23/02:30am 26.4 WSW 9 11 1010.9 - 0.0 - - 10 - - - -
23/02:00am 26.0 WSW 8 10 1010.9 - 0.0 - - 10 - - - -
23/01:30am 25.9 W 9 10 1011.0 - 0.0 - - 10 - - - -
23/01:00am 26.2 WSW 10 11 1011.4 - 0.0 - - 10 - - - -
23/12:30am 26.5 WSW 10 12 1011.5 - 0.0 - - 10 - - - -
23/12:00am 26.8 WSW 8 10 1011.7 - 0.0 - - 10 - - - -
 
Date/Time
WST
Temp

°C
Wind Pressure Rain
since 9am
mm
Weather Cloud Vis
km
Sea
Height
m
Swell
Dir
 
Speed
knots
Gust
knots
hPa Trend Height
m
Period
s
Dir
22/11:30pm 27.2 WSW 13 16 1011.8 - 0.0 - - 10 - - - -
22/11:00pm 27.5 WSW 10 13 1012.2 - 0.0 - - 10 - - - -
22/10:30pm 27.5 WSW 11 13 1012.5 - 0.0 - - 10 - - - -
22/10:00pm 27.8 WSW 10 12 1012.4 - 0.0 - - 10 - - - -
22/09:30pm 28.1 WSW 11 13 1012.4 - 0.0 - - 10 - - - -
22/09:00pm 28.4 W 12 15 1012.4 - 0.0 - - 10 - - - -
22/08:30pm 28.7 WSW 12 15 1012.2 - 0.0 - - 10 - - - -
22/08:00pm 28.9 WSW 13 15 1012.1 - 0.0 - - 10 - - - -
22/07:30pm 29.1 W 13 16 1011.9 - 0.0 - - 10 - - - -
22/07:00pm 29.7 W 14 16 1011.4 - 0.0 - - 10 - - - -
22/06:30pm 30.1 W 14 17 1011.0 - 0.0 - - 10 - - - -

Other Formats:

Comma delimited format used in spreadsheet applications
http://www.bom.gov.au/fwo/IDW60701/IDW60701.95307.axf

JavaScript Object Notation format (JSON) in row-major order
http://www.bom.gov.au/fwo/IDW60701/IDW60701.95307.json